San Julian, Argentina
Current Conditions -  °F | °C
As of 7:00 PM on Thursday 23 Oct 2014 (Local Time) from SAWG Reporting Station
Clear Clear  
Wind Chill: 57°   Ceiling: Unl
Heat Index: 57°   Visibility: 6mi
Dew Point: 18°   Wind: 29mph
Humidity: 21%   Direction: 250°WSW
Pressure: 29.85"   Gusts: 37mph
Location:  49.31°S, 67.71°W
Report Text: SAWG 232200Z 25025G32KT CAVOK 14/M08 Q1011
Loading
Personal Weather Stations






























Interactive Weather Map
Tropical Storm Tracking
New forecast layout! Learn more

10-Day Weather Forecast

Advertisements
Track Severe Weather on mobile